• Join FlightAware (Why Join?)
  • Login
  • US Flag 
04:33PM EDT


 

Airport Tracker/Info


-or-


 

Live Flight TrackerFlight Track Log ✈ EJA629 ✈ 06-Oct-2013 ✈ 7S6 - KBZN

Flight Track Log - Related Links

Times and Time Zones

All times are in EDT time to prevent confusion due to time zone crossing. See the EJA629 flight status page for this flight to view local times or setup timezone preferences in your user account.

Time Position Orientation Groundspeed Altitude Reporting Facility
EDT Latitude Longitude Course Direction KTS MPH feet Rate Location/Type
07:36PM 46.1575 -111.0255 199° South  Level Estimated
07:37PM 46.0885 -111.0486 193° South  Level Estimated
07:38PM 46.0196 -111.0716 193° South  Level Estimated
07:39PM 45.9506 -111.0946 193° South  Level Estimated
07:40PM 45.8816 -111.1175 193° South  Level Estimated
07:41PM 45.8127 -111.1404 193° South  Level Estimated
07:42PM 45.7776 -111.1520 193° South  Level Estimated
07:42PM 46.2419 -110.7675 327° Northwest 297 342 14,300  Level Salt Lake Center
07:43PM 45.7776 -111.1520 327° Northwest  Level Estimated
07:43PM 46.1314 -110.7053 159° South 344 396 16,900  Level Salt Lake Center
07:44PM 45.7776 -111.1520 327° Northwest  Level Estimated
07:44PM 46.0303 -110.6450 158° South 388 447 17,000  Level Salt Lake Center
07:45PM 45.7776 -111.1520 327° Northwest  Level Estimated
07:46PM 45.7776 -111.1520 327° Northwest  Level Estimated
07:46PM 45.9272 -110.5797 156° South 407 468 17,000  Level Salt Lake Center
07:47PM 45.7776 -111.1520 327° Northwest  Level Estimated
07:47PM 45.8267 -110.6131 193° South 364 419 15,900  Level Salt Lake Center
07:48PM 45.7776 -111.1520 327° Northwest  Level Estimated
07:48PM 45.8047 -110.7458 257° West 341 392 14,200  Level Salt Lake Center
07:49PM 45.7958 -110.8828 265° West 339 390 12,600 -1,080 Descending Salt Lake Center
07:50PM 45.7864 -111.0203 264° West 316 364 12,000 -1,320 Descending Salt Lake Center
07:51PM 45.8072 -111.1053 289° West 246 283 9,900 -2,160 Descending Salt Lake Center
07:52PM 45.8500 -111.1631 317° Northwest 214 246 7,600 -1,980 Descending Salt Lake Center
07:53PM 45.8397 -111.2169 255° West 159 183 5,900 -1,320 Descending Salt Lake Center
07:54PM 45.8033 -111.1897 152° Southeast 137 158 4,900 -780 Descending Salt Lake Center
07:55PM 45.7767 -111.1525 136° Southeast 131 151 4,400 -540 Descending Salt Lake Center